Terminal Aerodrome Forecast
Issued by NWS

Home | Current Version | Previous Version | Text Only | Print | Product List | Glossary Off
Versions: 1 2 3 4 5 6 7 8 9 10 11 12 13 14 15 16

970
FTUS43 KBIS 251605 AAA
TAFJMS
TAF AMD
KJMS 251605Z 2516/2612 30024G36KT P6SM BKN025
     FM251700 31023G38KT P6SM BKN035
     FM252000 31025G35KT P6SM SCT050
     FM260200 31013KT P6SM FEW250=

USA.gov is the U.S. government's official web portal to all federal, state and local government web resources and services.